createdAt,value
2018-07-09T00:01:29.643Z,0.00
2018-07-09T00:02:29.585Z,0.00
2018-07-09T00:04:22.559Z,0.00
2018-07-09T00:05:22.520Z,0.00
2018-07-09T00:07:15.345Z,0.00
2018-07-09T00:08:15.322Z,0.00
2018-07-09T00:10:08.294Z,0.00
2018-07-09T00:11:08.254Z,0.00
2018-07-09T00:13:01.069Z,0.00
2018-07-09T00:14:01.026Z,0.00
2018-07-09T00:15:54.023Z,0.00
2018-07-09T00:16:53.959Z,0.00
2018-07-09T00:18:46.854Z,0.00
2018-07-09T00:19:46.814Z,0.00
2018-07-09T00:21:39.659Z,0.00
2018-07-09T00:22:39.625Z,0.00
2018-07-09T00:24:32.569Z,0.00
2018-07-09T00:25:32.539Z,0.00
2018-07-09T00:27:25.530Z,0.00
2018-07-09T00:28:25.474Z,0.00
2018-07-09T00:30:18.351Z,0.00
2018-07-09T00:31:18.303Z,0.00
2018-07-09T00:33:11.114Z,0.00
2018-07-09T00:34:11.080Z,0.00
2018-07-09T00:36:04.078Z,0.00
2018-07-09T00:37:04.030Z,0.00
2018-07-09T00:38:56.991Z,0.00
2018-07-09T00:39:56.955Z,0.00
2018-07-09T00:41:49.853Z,0.00
2018-07-09T00:42:49.787Z,0.00
2018-07-09T00:44:42.757Z,0.00
2018-07-09T00:45:42.726Z,0.00
2018-07-09T00:47:35.846Z,0.00
2018-07-09T00:48:35.795Z,0.00
2018-07-09T00:50:28.657Z,0.00
2018-07-09T00:51:28.613Z,0.00
2018-07-09T00:53:21.630Z,0.00
2018-07-09T00:54:21.601Z,0.00
2018-07-09T00:56:14.601Z,0.00
2018-07-09T00:57:14.526Z,0.00
2018-07-09T00:59:07.683Z,0.00
2018-07-09T01:00:07.593Z,0.00
2018-07-09T01:02:00.619Z,0.00
2018-07-09T01:03:00.512Z,0.00
2018-07-09T01:04:53.480Z,0.00
2018-07-09T01:05:53.448Z,0.00
2018-07-09T01:07:46.291Z,0.00
2018-07-09T01:08:46.245Z,0.00
2018-07-09T01:10:39.057Z,0.00
2018-07-09T01:11:39.017Z,0.00
2018-07-09T01:13:32.013Z,0.00
2018-07-09T01:14:31.946Z,0.00
2018-07-09T01:16:24.993Z,0.00
2018-07-09T01:17:24.938Z,0.00
2018-07-09T01:19:18.024Z,0.00
2018-07-09T01:20:18.022Z,0.00
2018-07-09T01:22:10.832Z,0.00
2018-07-09T01:23:10.777Z,0.00
2018-07-09T01:25:03.753Z,0.00
2018-07-09T01:26:03.707Z,0.00
2018-07-09T01:27:56.838Z,0.00
2018-07-09T01:28:56.792Z,0.00
2018-07-09T01:30:49.762Z,0.00
2018-07-09T01:31:49.710Z,0.00
2018-07-09T01:33:42.690Z,0.00
2018-07-09T01:34:42.639Z,0.00
2018-07-09T01:36:35.472Z,0.00
2018-07-09T01:37:35.438Z,0.00
2018-07-09T01:39:28.429Z,0.00
2018-07-09T01:40:28.375Z,0.00
2018-07-09T01:42:21.348Z,0.00
2018-07-09T01:43:21.402Z,0.00
2018-07-09T01:45:14.629Z,0.00
2018-07-09T01:46:14.459Z,0.00
2018-07-09T01:48:07.334Z,0.00
2018-07-09T01:49:07.256Z,0.00
2018-07-09T01:51:00.221Z,0.00
2018-07-09T01:52:00.192Z,0.00
2018-07-09T01:53:53.462Z,0.00
2018-07-09T01:54:53.288Z,0.00
2018-07-09T01:56:46.259Z,0.00
2018-07-09T01:57:46.228Z,0.00
2018-07-09T01:59:39.204Z,0.00
2018-07-09T02:00:39.148Z,0.00
2018-07-09T02:02:32.305Z,0.00
2018-07-09T02:03:32.240Z,0.00
2018-07-09T02:05:25.216Z,0.00
2018-07-09T02:06:25.169Z,0.00
2018-07-09T02:08:18.126Z,0.00
2018-07-09T02:09:18.102Z,0.00
2018-07-09T02:11:11.008Z,0.00
2018-07-09T02:12:10.952Z,0.00
2018-07-09T02:14:03.950Z,0.00
2018-07-09T02:15:03.898Z,0.00
2018-07-09T02:16:56.855Z,0.00
2018-07-09T02:17:56.875Z,0.00
2018-07-09T02:19:50.040Z,0.00
2018-07-09T02:20:49.895Z,0.00
2018-07-09T02:22:42.846Z,0.00
2018-07-09T02:23:42.814Z,0.00
2018-07-09T02:25:35.804Z,0.00
2018-07-09T02:26:35.759Z,0.00
2018-07-09T02:28:28.861Z,0.00
2018-07-09T02:29:28.810Z,0.00
2018-07-09T02:31:21.786Z,0.00
2018-07-09T02:32:21.741Z,0.00
2018-07-09T02:34:14.734Z,0.00
2018-07-09T02:35:14.670Z,0.00
2018-07-09T02:37:07.550Z,0.00
2018-07-09T02:38:07.516Z,0.00
2018-07-09T02:40:00.511Z,0.00
2018-07-09T02:41:00.467Z,0.00
2018-07-09T02:42:53.420Z,0.00
2018-07-09T02:43:53.393Z,0.00
2018-07-09T02:45:46.592Z,0.00
2018-07-09T02:46:46.480Z,0.00
2018-07-09T02:48:39.465Z,0.00
2018-07-09T02:49:39.418Z,0.00
2018-07-09T02:51:32.417Z,0.00
2018-07-09T02:52:32.353Z,0.00
2018-07-09T02:54:25.163Z,0.00
2018-07-09T02:55:25.131Z,0.00
2018-07-09T02:57:18.077Z,0.00
2018-07-09T02:58:17.917Z,0.00
2018-07-09T03:00:10.900Z,0.00
2018-07-09T03:01:10.961Z,0.00
2018-07-09T03:03:03.828Z,0.00
2018-07-09T03:04:03.792Z,0.00
2018-07-09T03:05:56.972Z,0.00
2018-07-09T03:06:56.868Z,0.00
2018-07-09T03:08:49.694Z,0.00
2018-07-09T03:09:49.649Z,0.00
2018-07-09T03:11:42.637Z,0.00
2018-07-09T03:12:42.628Z,0.00
2018-07-09T03:14:35.399Z,0.00
2018-07-09T03:15:35.370Z,0.00
2018-07-09T03:17:28.248Z,0.00
2018-07-09T03:18:28.196Z,0.00
2018-07-09T03:20:21.161Z,0.00
2018-07-09T03:21:21.131Z,0.00
2018-07-09T03:23:13.945Z,0.00
2018-07-09T03:24:13.909Z,0.00
2018-07-09T03:26:06.862Z,0.00
2018-07-09T03:27:06.835Z,0.00
2018-07-09T03:28:59.722Z,0.00
2018-07-09T03:29:59.673Z,0.00
2018-07-09T03:31:52.673Z,0.00
2018-07-09T03:32:52.624Z,0.00
2018-07-09T03:34:45.585Z,0.00
2018-07-09T03:35:45.548Z,0.00
2018-07-09T03:37:38.724Z,0.00
2018-07-09T03:38:38.600Z,0.00
2018-07-09T03:40:31.579Z,0.00
2018-07-09T03:41:31.555Z,0.00
2018-07-09T03:43:24.527Z,0.00
2018-07-09T03:44:24.463Z,0.00
2018-07-09T03:46:17.618Z,0.00
2018-07-09T03:47:17.564Z,0.00
2018-07-09T03:49:10.574Z,0.00
2018-07-09T03:50:10.525Z,0.00
2018-07-09T03:52:03.343Z,0.00
2018-07-09T03:53:03.300Z,0.00
2018-07-09T03:54:56.491Z,5.63
2018-07-09T03:55:56.383Z,5.63
2018-07-09T03:57:49.363Z,5.63
2018-07-09T03:58:49.313Z,5.63
2018-07-09T04:00:42.294Z,5.63
2018-07-09T04:01:42.239Z,5.63
2018-07-09T04:03:35.159Z,5.63
2018-07-09T04:04:35.103Z,5.63
2018-07-09T04:06:28.065Z,5.63
2018-07-09T04:07:28.036Z,5.63
2018-07-09T04:09:21.029Z,5.63
2018-07-09T04:10:20.974Z,5.63
2018-07-09T04:12:14.099Z,5.63
2018-07-09T04:13:14.054Z,5.63
2018-07-09T04:15:07.026Z,5.63
2018-07-09T04:16:06.969Z,5.63
2018-07-09T04:17:59.945Z,5.63
2018-07-09T04:18:59.907Z,5.63
2018-07-09T04:20:53.117Z,5.63
2018-07-09T04:21:53.026Z,5.63
2018-07-09T04:23:45.970Z,11.25
2018-07-09T04:24:45.916Z,11.25
2018-07-09T04:26:38.744Z,11.25
2018-07-09T04:27:38.708Z,11.25
2018-07-09T04:29:31.885Z,11.25
2018-07-09T04:30:31.760Z,11.25
2018-07-09T04:32:24.753Z,11.25
2018-07-09T04:33:24.692Z,11.25
2018-07-09T04:35:17.659Z,11.25
2018-07-09T04:36:17.613Z,11.25
2018-07-09T04:38:10.752Z,11.25
2018-07-09T04:39:10.712Z,11.25
2018-07-09T04:41:03.736Z,11.25
2018-07-09T04:42:03.699Z,11.25
2018-07-09T04:43:56.656Z,11.25
2018-07-09T04:44:56.641Z,11.25
2018-07-09T04:46:49.665Z,11.25
2018-07-09T04:47:49.601Z,11.25
2018-07-09T04:49:42.567Z,11.25
2018-07-09T04:50:42.517Z,11.25
2018-07-09T04:52:35.513Z,11.25
2018-07-09T04:53:35.548Z,11.25
2018-07-09T04:55:28.494Z,11.25
2018-07-09T04:56:28.445Z,11.25
2018-07-09T04:58:21.433Z,11.25
2018-07-09T04:59:21.366Z,16.88
2018-07-09T05:01:14.184Z,16.88
2018-07-09T05:02:14.158Z,16.88
2018-07-09T05:04:07.342Z,16.88
2018-07-09T05:05:07.217Z,16.88
2018-07-09T05:07:00.228Z,16.88
2018-07-09T05:08:00.171Z,16.88
2018-07-09T05:09:53.163Z,16.88
2018-07-09T05:10:53.131Z,16.88
2018-07-09T05:12:45.979Z,16.88
2018-07-09T05:13:45.919Z,16.88
2018-07-09T05:15:38.893Z,16.88
2018-07-09T05:16:38.864Z,16.88
2018-07-09T05:18:31.827Z,16.88
2018-07-09T05:19:31.793Z,16.88
2018-07-09T05:21:25.002Z,16.88
2018-07-09T05:22:24.889Z,16.88
2018-07-09T05:24:17.878Z,16.88
2018-07-09T05:25:17.842Z,16.88
2018-07-09T05:27:10.790Z,16.88
2018-07-09T05:28:10.755Z,16.88
2018-07-09T05:30:03.898Z,16.88
2018-07-09T05:31:03.814Z,16.88
2018-07-09T05:32:56.818Z,16.88
2018-07-09T05:33:56.756Z,16.88
2018-07-09T05:35:49.742Z,16.88
2018-07-09T05:36:49.693Z,16.88
2018-07-09T05:38:42.550Z,16.88
2018-07-09T05:39:42.489Z,16.88
2018-07-09T05:41:35.479Z,16.88
2018-07-09T05:42:35.434Z,16.88
2018-07-09T05:44:28.405Z,16.88
2018-07-09T05:45:28.425Z,16.88
2018-07-09T05:47:21.173Z,16.88
2018-07-09T05:48:21.139Z,16.88
2018-07-09T05:50:13.971Z,16.88
2018-07-09T05:51:13.928Z,22.50
2018-07-09T05:53:06.890Z,22.50
2018-07-09T05:54:06.854Z,22.50
2018-07-09T05:56:00.294Z,22.50
2018-07-09T05:56:59.779Z,22.50
2018-07-09T05:58:52.761Z,22.50
2018-07-09T05:59:52.719Z,22.50
2018-07-09T06:01:45.571Z,22.50
2018-07-09T06:02:45.519Z,22.50
2018-07-09T06:04:38.498Z,22.50
2018-07-09T06:05:38.468Z,22.50
2018-07-09T06:07:31.426Z,22.50
2018-07-09T06:08:31.374Z,22.50
2018-07-09T06:10:24.560Z,22.50
2018-07-09T06:11:24.483Z,22.50
2018-07-09T06:13:17.416Z,22.50
2018-07-09T06:14:17.391Z,22.50
2018-07-09T06:16:10.385Z,22.50
2018-07-09T06:17:10.327Z,22.50
2018-07-09T06:19:03.636Z,22.50
2018-07-09T06:20:03.597Z,22.50
2018-07-09T06:21:56.634Z,22.50
2018-07-09T06:22:56.578Z,22.50
2018-07-09T06:24:49.471Z,22.50
2018-07-09T06:25:49.426Z,22.50
2018-07-09T06:27:42.430Z,22.50
2018-07-09T06:28:42.372Z,22.50
2018-07-09T06:30:35.343Z,22.50
2018-07-09T06:31:35.329Z,22.50
2018-07-09T06:33:28.462Z,22.50
2018-07-09T06:34:28.407Z,22.50
2018-07-09T06:36:21.320Z,22.50
2018-07-09T06:37:21.175Z,22.50
2018-07-09T06:39:14.181Z,22.50
2018-07-09T06:40:14.101Z,22.50
2018-07-09T06:42:06.928Z,22.50
2018-07-09T06:43:06.887Z,28.13
2018-07-09T06:44:59.731Z,28.13
2018-07-09T06:45:59.661Z,28.13
2018-07-09T06:47:52.677Z,28.13
2018-07-09T06:48:52.616Z,28.13
2018-07-09T06:50:45.595Z,28.13
2018-07-09T06:51:45.560Z,28.13
2018-07-09T06:53:38.551Z,28.13
2018-07-09T06:54:38.495Z,28.13
2018-07-09T06:56:31.457Z,28.13
2018-07-09T06:57:31.428Z,28.13
2018-07-09T06:59:24.412Z,28.13
2018-07-09T07:00:24.365Z,28.13
2018-07-09T07:02:17.368Z,28.13
2018-07-09T07:03:17.300Z,28.13
2018-07-09T07:05:10.113Z,28.13
2018-07-09T07:06:10.083Z,28.13
2018-07-09T07:08:03.073Z,28.13
2018-07-09T07:09:03.049Z,28.13
2018-07-09T07:10:56.027Z,28.13
2018-07-09T07:11:55.978Z,28.13
2018-07-09T07:13:49.183Z,28.13
2018-07-09T07:14:49.062Z,28.13
2018-07-09T07:16:42.000Z,28.13
2018-07-09T07:17:41.960Z,28.13
2018-07-09T07:19:34.800Z,28.13
2018-07-09T07:20:34.878Z,28.13
2018-07-09T07:22:28.037Z,33.75
2018-07-09T07:23:27.998Z,33.75
2018-07-09T07:25:21.015Z,33.75
2018-07-09T07:26:20.983Z,33.75
2018-07-09T07:28:13.930Z,33.75
2018-07-09T07:29:13.904Z,33.75
2018-07-09T07:31:06.897Z,33.75
2018-07-09T07:32:06.849Z,33.75
2018-07-09T07:33:59.825Z,33.75
2018-07-09T07:34:59.777Z,33.75
2018-07-09T07:36:52.770Z,33.75
2018-07-09T07:37:52.729Z,33.75
2018-07-09T07:39:45.573Z,33.75
2018-07-09T07:40:45.513Z,33.75
2018-07-09T07:42:38.489Z,39.38
2018-07-09T07:43:38.458Z,39.38
2018-07-09T07:45:31.444Z,39.38
2018-07-09T07:46:31.389Z,39.38
2018-07-09T07:48:24.615Z,39.38
2018-07-09T07:49:24.507Z,39.38
2018-07-09T07:51:17.355Z,39.38
2018-07-09T07:52:17.293Z,39.38
2018-07-09T07:54:10.280Z,39.38
2018-07-09T07:55:10.241Z,39.38
2018-07-09T07:57:03.380Z,39.38
2018-07-09T07:58:03.319Z,39.38
2018-07-09T07:59:56.314Z,39.38
2018-07-09T08:00:56.274Z,39.38
2018-07-09T08:02:49.153Z,39.38
2018-07-09T08:03:49.063Z,33.75
2018-07-09T08:05:42.303Z,33.75
2018-07-09T08:06:42.136Z,39.38
2018-07-09T08:08:35.121Z,45.00
2018-07-09T08:09:35.134Z,50.63
2018-07-09T08:11:47.728Z,50.63
2018-07-09T08:14:21.121Z,45.00
2018-07-09T08:15:21.084Z,45.00
2018-07-09T08:17:14.100Z,50.63
2018-07-09T08:18:14.056Z,50.63
2018-07-09T08:20:07.070Z,50.63
2018-07-09T08:21:07.042Z,50.63
2018-07-09T08:23:00.076Z,50.63
2018-07-09T08:23:59.984Z,50.63
2018-07-09T08:25:52.946Z,50.63
2018-07-09T08:26:52.920Z,45.00
2018-07-09T08:28:45.885Z,45.00
2018-07-09T08:29:45.851Z,45.00
2018-07-09T08:31:38.826Z,45.00
2018-07-09T08:32:38.636Z,45.00
2018-07-09T08:34:31.656Z,45.00
2018-07-09T08:35:31.609Z,45.00
2018-07-09T08:37:24.589Z,50.63
2018-07-09T08:38:24.571Z,50.63
2018-07-09T08:40:17.675Z,50.63
2018-07-09T08:41:17.577Z,50.63
2018-07-09T08:43:10.593Z,56.25
2018-07-09T08:44:10.540Z,56.25
2018-07-09T08:46:03.491Z,61.88
2018-07-09T08:47:03.455Z,61.88
2018-07-09T08:48:56.612Z,61.88
2018-07-09T08:49:56.547Z,61.88
2018-07-09T08:51:49.362Z,67.50
2018-07-09T08:52:49.360Z,67.50
2018-07-09T08:54:42.321Z,67.50
2018-07-09T08:55:42.309Z,61.88
2018-07-09T08:57:35.370Z,67.50
2018-07-09T08:58:35.353Z,67.50
2018-07-09T09:00:28.341Z,67.50
2018-07-09T09:01:28.277Z,67.50
2018-07-09T09:03:21.268Z,67.50
2018-07-09T09:04:21.237Z,73.13
2018-07-09T09:06:14.072Z,73.13
2018-07-09T09:07:14.042Z,73.13
2018-07-09T09:09:07.010Z,67.50
2018-07-09T09:10:06.989Z,67.50
2018-07-09T09:12:00.953Z,67.50
2018-07-09T09:13:00.920Z,67.50
2018-07-09T09:14:55.077Z,61.88
2018-07-09T09:15:54.999Z,61.88
2018-07-09T09:17:48.023Z,67.50
2018-07-09T09:18:48.006Z,67.50
2018-07-09T09:20:40.992Z,67.50
2018-07-09T09:21:40.993Z,67.50
2018-07-09T09:23:33.980Z,67.50
2018-07-09T09:24:33.929Z,73.13
2018-07-09T09:26:26.936Z,95.63
2018-07-09T09:27:26.868Z,112.50
2018-07-09T09:29:19.857Z,123.75
2018-07-09T09:30:19.827Z,123.75
2018-07-09T09:32:13.190Z,118.13
2018-07-09T09:33:13.139Z,106.88
2018-07-09T09:35:05.984Z,95.63
2018-07-09T09:36:05.919Z,101.25
2018-07-09T09:37:59.069Z,112.50
2018-07-09T09:38:59.038Z,112.50
2018-07-09T09:40:52.038Z,118.13
2018-07-09T09:41:51.999Z,112.50
2018-07-09T09:43:45.035Z,118.13
2018-07-09T09:44:44.988Z,123.75
2018-07-09T09:46:37.986Z,129.38
2018-07-09T09:47:37.934Z,135.00
2018-07-09T09:49:30.923Z,101.25
2018-07-09T09:50:30.882Z,90.00
2018-07-09T09:52:24.029Z,73.13
2018-07-09T09:53:23.974Z,73.13
2018-07-09T09:55:16.963Z,67.50
2018-07-09T09:56:16.907Z,67.50
2018-07-09T09:58:09.920Z,67.50
2018-07-09T09:59:09.869Z,67.50
2018-07-09T10:01:03.009Z,95.63
2018-07-09T10:02:02.969Z,135.00
2018-07-09T10:03:55.985Z,326.25
2018-07-09T10:04:55.930Z,388.13
2018-07-09T10:06:48.906Z,455.63
2018-07-09T10:07:48.889Z,444.38
2018-07-09T10:09:41.897Z,455.63
2018-07-09T10:10:41.861Z,450.00
2018-07-09T10:12:34.835Z,455.63
2018-07-09T10:13:34.889Z,461.25
2018-07-09T10:15:27.923Z,472.50
2018-07-09T10:16:27.872Z,478.13
2018-07-09T10:18:20.882Z,450.00
2018-07-09T10:19:20.854Z,472.50
2018-07-09T10:21:13.703Z,444.38
2018-07-09T10:22:13.663Z,472.50
2018-07-09T10:24:06.507Z,461.25
2018-07-09T10:25:06.480Z,466.88
2018-07-09T10:26:59.302Z,466.88
2018-07-09T10:27:59.274Z,466.88
2018-07-09T10:29:52.273Z,483.75
2018-07-09T10:30:52.253Z,483.75
2018-07-09T10:32:45.235Z,483.75
2018-07-09T10:33:45.215Z,489.38
2018-07-09T10:35:38.230Z,495.00
2018-07-09T10:36:38.196Z,511.88
2018-07-09T10:38:31.182Z,523.13
2018-07-09T10:39:31.175Z,534.38
2018-07-09T10:41:24.171Z,545.63
2018-07-09T10:42:24.137Z,551.25
2018-07-09T10:44:16.977Z,545.63
2018-07-09T10:45:16.960Z,163.13
2018-07-09T10:47:09.998Z,163.13
2018-07-09T10:48:09.952Z,163.13
2018-07-09T10:50:02.961Z,405.00
2018-07-09T10:51:02.921Z,528.75
2018-07-09T10:52:56.092Z,174.38
2018-07-09T10:53:56.076Z,450.00
2018-07-09T10:55:49.081Z,461.25
2018-07-09T10:56:49.032Z,455.63
2018-07-09T10:58:42.027Z,523.13
2018-07-09T10:59:42.012Z,523.13
2018-07-09T11:01:34.872Z,478.13
2018-07-09T11:02:34.830Z,483.75
2018-07-09T11:04:27.813Z,523.13
2018-07-09T11:05:27.786Z,517.50
2018-07-09T11:07:20.812Z,146.25
2018-07-09T11:08:20.757Z,461.25
2018-07-09T11:10:13.839Z,393.75
2018-07-09T11:11:13.817Z,348.75
2018-07-09T11:13:06.858Z,376.88
2018-07-09T11:14:06.887Z,354.38
2018-07-09T11:15:59.984Z,438.75
2018-07-09T11:16:59.928Z,365.63
2018-07-09T11:18:52.958Z,292.50
2018-07-09T11:19:52.898Z,264.38
2018-07-09T11:21:45.925Z,360.00
2018-07-09T11:22:45.872Z,360.00
2018-07-09T11:24:38.924Z,191.25
2018-07-09T11:25:38.901Z,163.13
2018-07-09T11:27:31.907Z,281.25
2018-07-09T11:28:31.972Z,270.00
2018-07-09T11:30:24.922Z,202.50
2018-07-09T11:31:24.900Z,185.63
2018-07-09T11:33:17.897Z,163.13
2018-07-09T11:34:17.843Z,157.50
2018-07-09T11:36:10.927Z,151.88
2018-07-09T11:37:10.861Z,135.00
2018-07-09T11:39:04.018Z,123.75
2018-07-09T11:40:03.944Z,118.13
2018-07-09T11:41:56.788Z,112.50
2018-07-09T11:42:56.754Z,118.13
2018-07-09T11:44:49.753Z,123.75
2018-07-09T11:45:49.704Z,146.25
2018-07-09T11:47:42.844Z,180.00
2018-07-09T11:48:42.810Z,168.75
2018-07-09T11:50:35.820Z,225.00
2018-07-09T11:51:35.773Z,270.00
2018-07-09T11:53:29.219Z,241.88
2018-07-09T11:54:28.735Z,275.63
2018-07-09T11:56:21.540Z,270.00
2018-07-09T11:57:21.518Z,360.00
2018-07-09T11:59:14.379Z,168.75
2018-07-09T12:00:14.330Z,180.00
2018-07-09T12:02:07.317Z,275.63
2018-07-09T12:03:07.301Z,270.00
2018-07-09T12:05:00.435Z,213.75
2018-07-09T12:06:00.370Z,191.25
2018-07-09T12:07:53.365Z,168.75
2018-07-09T12:08:53.325Z,163.13
2018-07-09T12:10:46.315Z,168.75
2018-07-09T12:11:46.289Z,236.25
2018-07-09T12:13:39.283Z,461.25
2018-07-09T12:14:39.229Z,225.00
2018-07-09T12:16:32.214Z,264.38
2018-07-09T12:17:32.191Z,208.13
2018-07-09T12:19:25.191Z,180.00
2018-07-09T12:20:25.146Z,225.00
2018-07-09T12:22:18.312Z,196.88
2018-07-09T12:23:18.246Z,540.00
2018-07-09T12:25:11.256Z,506.25
2018-07-09T12:26:11.225Z,303.75
2018-07-09T12:28:04.196Z,315.00
2018-07-09T12:29:04.209Z,264.38
2018-07-09T12:30:57.189Z,196.88
2018-07-09T12:31:57.152Z,213.75
2018-07-09T12:33:49.973Z,365.63
2018-07-09T12:34:49.959Z,354.38
2018-07-09T12:36:43.963Z,202.50
2018-07-09T12:37:43.930Z,416.25
2018-07-09T12:39:36.770Z,236.25
2018-07-09T12:40:36.762Z,185.63
2018-07-09T12:42:29.797Z,213.75
2018-07-09T12:43:29.747Z,360.00
2018-07-09T12:45:23.762Z,500.63
2018-07-09T12:46:23.721Z,495.00
2018-07-09T12:48:16.586Z,180.00
2018-07-09T12:49:16.546Z,461.25
2018-07-09T12:51:09.422Z,320.63
2018-07-09T12:52:09.371Z,433.13
2018-07-09T12:54:02.395Z,292.50
2018-07-09T12:55:02.353Z,191.25
2018-07-09T12:56:55.626Z,213.75
2018-07-09T12:57:55.504Z,185.63
2018-07-09T12:59:48.544Z,208.13
2018-07-09T13:00:48.527Z,275.63
2018-07-09T13:02:41.873Z,208.13
2018-07-09T13:03:41.808Z,258.75
2018-07-09T13:05:34.801Z,281.25
2018-07-09T13:07:47.839Z,213.75
2018-07-09T13:08:47.826Z,253.13
2018-07-09T13:10:40.792Z,213.75
2018-07-09T13:11:40.757Z,213.75
2018-07-09T13:13:33.807Z,191.25
2018-07-09T13:14:33.794Z,174.38
2018-07-09T13:16:26.625Z,151.88
2018-07-09T13:17:26.579Z,151.88
2018-07-09T13:19:19.596Z,174.38
2018-07-09T13:20:19.429Z,236.25
2018-07-09T13:22:12.467Z,202.50
2018-07-09T13:23:12.406Z,174.38
2018-07-09T13:25:05.417Z,157.50
2018-07-09T13:26:05.386Z,151.88
2018-07-09T13:27:58.503Z,146.25
2018-07-09T13:28:58.459Z,140.63
2018-07-09T13:30:51.459Z,123.75
2018-07-09T13:31:51.423Z,129.38
2018-07-09T13:33:44.721Z,191.25
2018-07-09T13:34:44.548Z,174.38
2018-07-09T13:36:37.535Z,174.38
2018-07-09T13:37:37.518Z,180.00
2018-07-09T13:39:30.513Z,151.88
2018-07-09T13:40:30.482Z,129.38
2018-07-09T13:42:23.554Z,106.88
2018-07-09T13:43:23.531Z,101.25
2018-07-09T13:45:16.524Z,106.88
2018-07-09T13:46:16.492Z,112.50
2018-07-09T13:48:09.458Z,129.38
2018-07-09T13:49:09.449Z,135.00
2018-07-09T13:51:02.457Z,151.88
2018-07-09T13:52:02.403Z,208.13
2018-07-09T13:53:55.414Z,208.13
2018-07-09T13:54:55.353Z,258.75
2018-07-09T13:56:48.533Z,292.50
2018-07-09T13:57:48.467Z,241.88
2018-07-09T13:59:41.915Z,196.88
2018-07-09T14:00:41.432Z,185.63
2018-07-09T14:02:34.393Z,191.25
2018-07-09T14:03:34.364Z,208.13
2018-07-09T14:05:27.214Z,236.25
2018-07-09T14:06:27.176Z,168.75
2018-07-09T14:08:20.159Z,180.00
2018-07-09T14:09:20.139Z,241.88
2018-07-09T14:11:12.980Z,230.63
2018-07-09T14:12:12.941Z,241.88
2018-07-09T14:14:05.922Z,230.63
2018-07-09T14:15:05.898Z,213.75
2018-07-09T14:16:58.822Z,219.38
2018-07-09T14:17:58.794Z,140.63
2018-07-09T14:19:51.799Z,118.13
2018-07-09T14:20:51.749Z,118.13
2018-07-09T14:22:44.584Z,118.13
2018-07-09T14:23:44.611Z,112.50
2018-07-09T14:25:37.404Z,129.38
2018-07-09T14:26:37.351Z,135.00
2018-07-09T14:28:30.203Z,146.25
2018-07-09T14:29:30.166Z,168.75
2018-07-09T14:31:23.071Z,123.75
2018-07-09T14:32:22.960Z,118.13
2018-07-09T14:34:16.110Z,112.50
2018-07-09T14:35:16.131Z,112.50
2018-07-09T14:37:09.305Z,118.13
2018-07-09T14:38:09.192Z,118.13
2018-07-09T14:40:02.180Z,118.13
2018-07-09T14:41:02.144Z,123.75
2018-07-09T14:42:55.141Z,146.25
2018-07-09T14:43:55.098Z,168.75
2018-07-09T14:45:47.951Z,163.13
2018-07-09T14:46:47.898Z,140.63
2018-07-09T14:48:40.940Z,140.63
2018-07-09T14:49:40.870Z,140.63
2018-07-09T14:51:33.759Z,151.88
2018-07-09T14:52:33.708Z,140.63
2018-07-09T14:54:26.676Z,123.75
2018-07-09T14:55:26.636Z,123.75
2018-07-09T14:57:19.703Z,123.75
2018-07-09T14:58:19.596Z,129.38
2018-07-09T15:00:12.578Z,129.38
2018-07-09T15:01:12.552Z,140.63
2018-07-09T15:03:05.567Z,135.00
2018-07-09T15:04:05.510Z,135.00
2018-07-09T15:05:58.354Z,135.00
2018-07-09T15:06:58.317Z,129.38
2018-07-09T15:08:51.326Z,123.75
2018-07-09T15:09:51.273Z,123.75
2018-07-09T15:11:44.281Z,112.50
2018-07-09T15:12:44.257Z,101.25
2018-07-09T15:14:37.106Z,101.25
2018-07-09T15:15:37.071Z,112.50
2018-07-09T15:17:30.046Z,106.88
2018-07-09T15:18:30.011Z,112.50
2018-07-09T15:20:22.999Z,106.88
2018-07-09T15:21:22.954Z,101.25
2018-07-09T15:23:16.112Z,95.63
2018-07-09T15:24:16.072Z,90.00
2018-07-09T15:26:09.088Z,84.38
2018-07-09T15:27:09.026Z,84.38
2018-07-09T15:29:02.023Z,84.38
2018-07-09T15:30:01.967Z,84.38
2018-07-09T15:31:54.804Z,84.38
2018-07-09T15:32:54.782Z,84.38
2018-07-09T15:34:47.767Z,90.00
2018-07-09T15:35:47.734Z,101.25
2018-07-09T15:37:40.739Z,90.00
2018-07-09T15:38:40.720Z,90.00
2018-07-09T15:40:33.889Z,84.38
2018-07-09T15:41:33.827Z,78.75
2018-07-09T15:43:26.858Z,73.13
2018-07-09T15:44:26.807Z,73.13
2018-07-09T15:46:19.808Z,67.50
2018-07-09T15:47:19.777Z,61.88
2018-07-09T15:49:12.932Z,56.25
2018-07-09T15:50:12.794Z,56.25
2018-07-09T15:52:05.612Z,56.25
2018-07-09T15:53:05.596Z,50.63
2018-07-09T15:54:58.632Z,50.63
2018-07-09T15:55:58.578Z,50.63
2018-07-09T15:57:51.918Z,50.63
2018-07-09T15:58:51.883Z,50.63
2018-07-09T16:00:44.898Z,50.63
2018-07-09T16:01:44.853Z,50.63
2018-07-09T16:03:37.672Z,45.00
2018-07-09T16:04:37.647Z,45.00
2018-07-09T16:06:30.665Z,45.00
2018-07-09T16:07:30.623Z,45.00
2018-07-09T16:09:23.601Z,45.00
2018-07-09T16:10:23.566Z,50.63
2018-07-09T16:12:16.410Z,50.63
2018-07-09T16:13:16.368Z,56.25
2018-07-09T16:15:09.392Z,67.50
2018-07-09T16:16:09.331Z,67.50
2018-07-09T16:18:02.356Z,67.50
2018-07-09T16:19:02.352Z,67.50
2018-07-09T16:20:55.509Z,67.50
2018-07-09T16:21:55.446Z,67.50
2018-07-09T16:23:48.428Z,67.50
2018-07-09T16:24:48.399Z,67.50
2018-07-09T16:26:41.395Z,67.50
2018-07-09T16:27:41.369Z,67.50
2018-07-09T16:29:34.346Z,67.50
2018-07-09T16:30:34.325Z,67.50
2018-07-09T16:32:27.329Z,61.88
2018-07-09T16:33:27.290Z,61.88
2018-07-09T16:35:20.305Z,56.25
2018-07-09T16:36:20.305Z,50.63
2018-07-09T16:38:13.329Z,50.63
2018-07-09T16:39:13.275Z,50.63
2018-07-09T16:41:06.105Z,45.00
2018-07-09T16:42:06.060Z,45.00
2018-07-09T16:43:59.060Z,45.00
2018-07-09T16:44:59.020Z,45.00
2018-07-09T16:46:52.093Z,45.00
2018-07-09T16:47:51.818Z,45.00
2018-07-09T16:49:44.811Z,50.63
2018-07-09T16:50:44.784Z,50.63
2018-07-09T16:52:37.889Z,50.63
2018-07-09T16:53:37.787Z,45.00
2018-07-09T16:55:31.242Z,45.00
2018-07-09T16:56:30.906Z,39.38
2018-07-09T16:58:24.882Z,39.38
2018-07-09T16:59:24.840Z,33.75
2018-07-09T17:01:17.835Z,33.75
2018-07-09T17:02:17.807Z,33.75
2018-07-09T17:04:10.697Z,33.75
2018-07-09T17:05:10.652Z,33.75
2018-07-09T17:07:03.652Z,33.75
2018-07-09T17:08:03.597Z,33.75
2018-07-09T17:09:56.612Z,28.13
2018-07-09T17:10:56.561Z,28.13
2018-07-09T17:12:49.498Z,28.13
2018-07-09T17:13:49.477Z,28.13
2018-07-09T17:15:42.510Z,22.50
2018-07-09T17:16:42.429Z,22.50
2018-07-09T17:18:35.422Z,22.50
2018-07-09T17:19:35.395Z,22.50
2018-07-09T17:21:28.233Z,28.13
2018-07-09T17:22:28.180Z,28.13
2018-07-09T17:24:21.342Z,28.13
2018-07-09T17:25:21.312Z,28.13
2018-07-09T17:27:14.433Z,33.75
2018-07-09T17:28:14.283Z,33.75
2018-07-09T17:30:07.147Z,33.75
2018-07-09T17:31:07.088Z,33.75
2018-07-09T17:33:00.073Z,33.75
2018-07-09T17:34:00.058Z,33.75
2018-07-09T17:35:52.897Z,33.75
2018-07-09T17:36:52.855Z,33.75
2018-07-09T17:38:45.853Z,33.75
2018-07-09T17:39:45.819Z,33.75
2018-07-09T17:41:38.697Z,33.75
2018-07-09T17:42:38.643Z,33.75
2018-07-09T17:44:31.597Z,33.75
2018-07-09T17:45:31.553Z,33.75
2018-07-09T17:47:24.566Z,33.75
2018-07-09T17:48:24.583Z,33.75
2018-07-09T17:50:17.731Z,28.13
2018-07-09T17:51:17.604Z,28.13
2018-07-09T17:53:10.622Z,28.13
2018-07-09T17:54:10.562Z,28.13
2018-07-09T17:56:03.533Z,28.13
2018-07-09T17:57:03.509Z,28.13
2018-07-09T17:58:56.359Z,33.75
2018-07-09T17:59:56.311Z,33.75
2018-07-09T18:01:49.293Z,33.75
2018-07-09T18:02:49.274Z,28.13
2018-07-09T18:04:42.128Z,28.13
2018-07-09T18:05:42.080Z,28.13
2018-07-09T18:07:35.064Z,28.13
2018-07-09T18:08:35.047Z,22.50
2018-07-09T18:10:27.934Z,22.50
2018-07-09T18:11:27.835Z,22.50
2018-07-09T18:13:20.808Z,22.50
2018-07-09T18:14:20.779Z,22.50
2018-07-09T18:16:13.794Z,22.50
2018-07-09T18:17:13.733Z,28.13
2018-07-09T18:19:06.936Z,28.13
2018-07-09T18:20:06.848Z,28.13
2018-07-09T18:21:59.835Z,28.13
2018-07-09T18:22:59.818Z,28.13
2018-07-09T18:24:53.089Z,22.50
2018-07-09T18:25:52.969Z,22.50
2018-07-09T18:27:45.953Z,22.50
2018-07-09T18:28:45.917Z,16.88
2018-07-09T18:30:38.906Z,16.88
2018-07-09T18:31:38.864Z,16.88
2018-07-09T18:33:31.993Z,11.25